sensor_id;sensor_type;location;lat;lon;timestamp;P1;durP1;ratioP1;P2;durP2;ratioP2
82417;SDS011;75985;53.734;10.260;2024-02-16T00:01:07;4.05;;;3.25;;
82417;SDS011;75985;53.734;10.260;2024-02-16T00:04:12;3.77;;;3.37;;
82417;SDS011;75985;53.734;10.260;2024-02-16T00:07:17;3.12;;;2.92;;
82417;SDS011;75985;53.734;10.260;2024-02-16T00:10:21;3.42;;;3.12;;
82417;SDS011;75985;53.734;10.260;2024-02-16T00:13:26;3.40;;;3.10;;
82417;SDS011;75985;53.734;10.260;2024-02-16T00:16:30;3.00;;;2.70;;
82417;SDS011;75985;53.734;10.260;2024-02-16T00:19:35;3.98;;;3.58;;
82417;SDS011;75985;53.734;10.260;2024-02-16T00:22:39;3.58;;;3.05;;
82417;SDS011;75985;53.734;10.260;2024-02-16T00:25:44;3.25;;;2.92;;
82417;SDS011;75985;53.734;10.260;2024-02-16T00:28:49;4.70;;;4.28;;
82417;SDS011;75985;53.734;10.260;2024-02-16T00:31:54;4.35;;;3.95;;
82417;SDS011;75985;53.734;10.260;2024-02-16T00:34:58;7.35;;;4.08;;
82417;SDS011;75985;53.734;10.260;2024-02-16T00:38:03;3.98;;;3.58;;
82417;SDS011;75985;53.734;10.260;2024-02-16T00:41:07;3.47;;;3.17;;
82417;SDS011;75985;53.734;10.260;2024-02-16T00:44:13;4.58;;;3.80;;
82417;SDS011;75985;53.734;10.260;2024-02-16T00:47:18;4.15;;;3.75;;
82417;SDS011;75985;53.734;10.260;2024-02-16T00:50:22;4.50;;;4.10;;
82417;SDS011;75985;53.734;10.260;2024-02-16T00:53:28;4.62;;;4.22;;
82417;SDS011;75985;53.734;10.260;2024-02-16T00:56:32;4.40;;;4.00;;
82417;SDS011;75985;53.734;10.260;2024-02-16T00:59:37;5.17;;;4.45;;
82417;SDS011;75985;53.734;10.260;2024-02-16T01:02:41;5.50;;;3.80;;
82417;SDS011;75985;53.734;10.260;2024-02-16T01:05:46;6.10;;;4.67;;
82417;SDS011;75985;53.734;10.260;2024-02-16T01:08:50;6.30;;;4.58;;
82417;SDS011;75985;53.734;10.260;2024-02-16T01:11:55;5.83;;;4.80;;
82417;SDS011;75985;53.734;10.260;2024-02-16T01:14:59;6.45;;;4.92;;
82417;SDS011;75985;53.734;10.260;2024-02-16T01:18:04;6.45;;;4.78;;
82417;SDS011;75985;53.734;10.260;2024-02-16T01:21:09;7.80;;;4.87;;
82417;SDS011;75985;53.734;10.260;2024-02-16T01:24:13;5.92;;;4.55;;
82417;SDS011;75985;53.734;10.260;2024-02-16T01:27:18;5.08;;;4.45;;
82417;SDS011;75985;53.734;10.260;2024-02-16T01:30:24;5.30;;;4.80;;
82417;SDS011;75985;53.734;10.260;2024-02-16T01:33:28;6.05;;;4.83;;
82417;SDS011;75985;53.734;10.260;2024-02-16T01:36:34;5.92;;;4.90;;
82417;SDS011;75985;53.734;10.260;2024-02-16T01:39:39;5.10;;;4.17;;
82417;SDS011;75985;53.734;10.260;2024-02-16T01:42:46;5.20;;;4.30;;
82417;SDS011;75985;53.734;10.260;2024-02-16T01:45:51;4.30;;;3.80;;
82417;SDS011;75985;53.734;10.260;2024-02-16T01:48:56;3.50;;;3.20;;
82417;SDS011;75985;53.734;10.260;2024-02-16T01:52:01;3.60;;;3.30;;
82417;SDS011;75985;53.734;10.260;2024-02-16T01:55:05;4.40;;;3.55;;
82417;SDS011;75985;53.734;10.260;2024-02-16T01:58:13;3.20;;;2.90;;
82417;SDS011;75985;53.734;10.260;2024-02-16T02:01:18;4.35;;;3.65;;
82417;SDS011;75985;53.734;10.260;2024-02-16T02:04:23;3.90;;;3.30;;
82417;SDS011;75985;53.734;10.260;2024-02-16T02:07:27;3.17;;;2.85;;
82417;SDS011;75985;53.734;10.260;2024-02-16T02:10:32;3.30;;;3.00;;
82417;SDS011;75985;53.734;10.260;2024-02-16T02:13:37;2.95;;;2.62;;
82417;SDS011;75985;53.734;10.260;2024-02-16T02:16:42;3.12;;;2.72;;
82417;SDS011;75985;53.734;10.260;2024-02-16T02:19:46;3.17;;;2.80;;
82417;SDS011;75985;53.734;10.260;2024-02-16T02:22:53;3.47;;;3.12;;
82417;SDS011;75985;53.734;10.260;2024-02-16T02:25:57;3.75;;;3.30;;
82417;SDS011;75985;53.734;10.260;2024-02-16T02:29:02;5.90;;;3.65;;
82417;SDS011;75985;53.734;10.260;2024-02-16T02:32:07;3.85;;;3.10;;
82417;SDS011;75985;53.734;10.260;2024-02-16T02:35:12;3.60;;;3.30;;
82417;SDS011;75985;53.734;10.260;2024-02-16T02:38:17;5.35;;;3.80;;
82417;SDS011;75985;53.734;10.260;2024-02-16T02:41:21;5.37;;;4.33;;
82417;SDS011;75985;53.734;10.260;2024-02-16T02:44:26;6.20;;;4.35;;
82417;SDS011;75985;53.734;10.260;2024-02-16T02:47:32;6.42;;;4.78;;
82417;SDS011;75985;53.734;10.260;2024-02-16T02:50:36;10.18;;;5.65;;
82417;SDS011;75985;53.734;10.260;2024-02-16T02:53:41;7.58;;;5.33;;
82417;SDS011;75985;53.734;10.260;2024-02-16T02:56:46;6.17;;;4.53;;
82417;SDS011;75985;53.734;10.260;2024-02-16T02:59:50;5.12;;;4.58;;
82417;SDS011;75985;53.734;10.260;2024-02-16T03:02:55;4.75;;;4.25;;
82417;SDS011;75985;53.734;10.260;2024-02-16T03:05:59;4.33;;;3.75;;
82417;SDS011;75985;53.734;10.260;2024-02-16T03:09:06;5.08;;;3.80;;
82417;SDS011;75985;53.734;10.260;2024-02-16T03:12:10;4.03;;;3.42;;
82417;SDS011;75985;53.734;10.260;2024-02-16T03:15:16;3.83;;;3.42;;
82417;SDS011;75985;53.734;10.260;2024-02-16T03:18:20;3.45;;;2.80;;
82417;SDS011;75985;53.734;10.260;2024-02-16T03:21:27;4.08;;;3.50;;
82417;SDS011;75985;53.734;10.260;2024-02-16T03:24:32;5.90;;;3.75;;
82417;SDS011;75985;53.734;10.260;2024-02-16T03:27:37;3.80;;;2.98;;
82417;SDS011;75985;53.734;10.260;2024-02-16T03:30:42;3.47;;;2.98;;
82417;SDS011;75985;53.734;10.260;2024-02-16T03:33:47;3.60;;;3.25;;
82417;SDS011;75985;53.734;10.260;2024-02-16T03:36:52;4.17;;;3.40;;
82417;SDS011;75985;53.734;10.260;2024-02-16T03:39:57;3.87;;;3.55;;
82417;SDS011;75985;53.734;10.260;2024-02-16T03:43:01;5.30;;;3.50;;
82417;SDS011;75985;53.734;10.260;2024-02-16T03:46:06;3.47;;;3.15;;
82417;SDS011;75985;53.734;10.260;2024-02-16T03:49:10;3.65;;;3.35;;
82417;SDS011;75985;53.734;10.260;2024-02-16T03:52:15;3.87;;;3.45;;
82417;SDS011;75985;53.734;10.260;2024-02-16T03:55:19;3.55;;;3.17;;
82417;SDS011;75985;53.734;10.260;2024-02-16T03:58:24;3.77;;;3.47;;
82417;SDS011;75985;53.734;10.260;2024-02-16T04:01:29;4.50;;;4.00;;
82417;SDS011;75985;53.734;10.260;2024-02-16T04:04:33;6.70;;;4.70;;
82417;SDS011;75985;53.734;10.260;2024-02-16T04:07:38;5.10;;;4.05;;
82417;SDS011;75985;53.734;10.260;2024-02-16T04:10:44;4.78;;;3.95;;
82417;SDS011;75985;53.734;10.260;2024-02-16T04:13:49;4.95;;;4.45;;
82417;SDS011;75985;53.734;10.260;2024-02-16T04:16:54;5.83;;;4.20;;
82417;SDS011;75985;53.734;10.260;2024-02-16T04:20:00;4.40;;;4.00;;
82417;SDS011;75985;53.734;10.260;2024-02-16T04:23:05;4.47;;;3.65;;
82417;SDS011;75985;53.734;10.260;2024-02-16T04:26:10;12.90;;;6.12;;
82417;SDS011;75985;53.734;10.260;2024-02-16T04:29:16;8.70;;;5.40;;
82417;SDS011;75985;53.734;10.260;2024-02-16T04:32:20;5.70;;;4.65;;
82417;SDS011;75985;53.734;10.260;2024-02-16T04:35:26;5.50;;;4.33;;
82417;SDS011;75985;53.734;10.260;2024-02-16T04:38:31;5.25;;;4.40;;
82417;SDS011;75985;53.734;10.260;2024-02-16T04:41:35;5.87;;;4.37;;
82417;SDS011;75985;53.734;10.260;2024-02-16T04:44:41;7.00;;;3.83;;
82417;SDS011;75985;53.734;10.260;2024-02-16T04:47:45;4.10;;;3.65;;
82417;SDS011;75985;53.734;10.260;2024-02-16T04:50:50;4.40;;;3.37;;
82417;SDS011;75985;53.734;10.260;2024-02-16T04:53:55;3.70;;;3.30;;
82417;SDS011;75985;53.734;10.260;2024-02-16T04:57:00;4.40;;;3.85;;
82417;SDS011;75985;53.734;10.260;2024-02-16T05:00:04;3.70;;;3.40;;
82417;SDS011;75985;53.734;10.260;2024-02-16T05:03:11;5.40;;;3.27;;
82417;SDS011;75985;53.734;10.260;2024-02-16T05:06:16;4.90;;;3.58;;
82417;SDS011;75985;53.734;10.260;2024-02-16T05:09:20;4.75;;;3.47;;
82417;SDS011;75985;53.734;10.260;2024-02-16T05:12:27;4.33;;;3.22;;
82417;SDS011;75985;53.734;10.260;2024-02-16T05:15:32;5.60;;;4.03;;
82417;SDS011;75985;53.734;10.260;2024-02-16T05:18:37;3.83;;;3.40;;
82417;SDS011;75985;53.734;10.260;2024-02-16T05:21:42;5.58;;;4.17;;
82417;SDS011;75985;53.734;10.260;2024-02-16T05:24:47;5.22;;;3.87;;
82417;SDS011;75985;53.734;10.260;2024-02-16T05:27:52;3.98;;;3.40;;
82417;SDS011;75985;53.734;10.260;2024-02-16T05:30:57;3.50;;;3.20;;
82417;SDS011;75985;53.734;10.260;2024-02-16T05:34:03;3.70;;;3.40;;
82417;SDS011;75985;53.734;10.260;2024-02-16T05:37:08;4.92;;;3.30;;
82417;SDS011;75985;53.734;10.260;2024-02-16T05:40:12;5.72;;;3.72;;
82417;SDS011;75985;53.734;10.260;2024-02-16T05:43:30;4.35;;;3.20;;
82417;SDS011;75985;53.734;10.260;2024-02-16T05:46:36;5.12;;;3.60;;
82417;SDS011;75985;53.734;10.260;2024-02-16T05:49:40;4.65;;;3.42;;
82417;SDS011;75985;53.734;10.260;2024-02-16T05:52:45;3.85;;;3.50;;
82417;SDS011;75985;53.734;10.260;2024-02-16T05:55:49;4.05;;;3.62;;
82417;SDS011;75985;53.734;10.260;2024-02-16T05:58:54;3.90;;;3.40;;
82417;SDS011;75985;53.734;10.260;2024-02-16T06:01:59;4.67;;;3.30;;
82417;SDS011;75985;53.734;10.260;2024-02-16T06:05:03;4.40;;;3.67;;
82417;SDS011;75985;53.734;10.260;2024-02-16T06:08:08;5.05;;;3.05;;
82417;SDS011;75985;53.734;10.260;2024-02-16T06:11:14;3.15;;;2.85;;
82417;SDS011;75985;53.734;10.260;2024-02-16T06:14:19;3.20;;;2.90;;
82417;SDS011;75985;53.734;10.260;2024-02-16T06:17:25;3.00;;;2.70;;
82417;SDS011;75985;53.734;10.260;2024-02-16T06:20:29;2.67;;;2.47;;
82417;SDS011;75985;53.734;10.260;2024-02-16T06:23:34;3.02;;;2.72;;
82417;SDS011;75985;53.734;10.260;2024-02-16T06:26:39;3.75;;;2.95;;
82417;SDS011;75985;53.734;10.260;2024-02-16T06:29:43;3.70;;;2.85;;
82417;SDS011;75985;53.734;10.260;2024-02-16T06:32:48;3.65;;;3.20;;
82417;SDS011;75985;53.734;10.260;2024-02-16T06:35:53;3.15;;;2.85;;
82417;SDS011;75985;53.734;10.260;2024-02-16T06:38:57;4.03;;;3.10;;
82417;SDS011;75985;53.734;10.260;2024-02-16T06:42:02;3.95;;;2.77;;
82417;SDS011;75985;53.734;10.260;2024-02-16T06:45:07;3.10;;;2.80;;
82417;SDS011;75985;53.734;10.260;2024-02-16T06:48:12;4.45;;;3.37;;
82417;SDS011;75985;53.734;10.260;2024-02-16T06:51:16;4.60;;;3.30;;
82417;SDS011;75985;53.734;10.260;2024-02-16T06:54:21;4.58;;;3.52;;
82417;SDS011;75985;53.734;10.260;2024-02-16T06:57:27;2.83;;;2.62;;
82417;SDS011;75985;53.734;10.260;2024-02-16T07:00:31;4.65;;;3.30;;
82417;SDS011;75985;53.734;10.260;2024-02-16T07:03:37;3.47;;;3.17;;
82417;SDS011;75985;53.734;10.260;2024-02-16T07:06:42;2.70;;;2.50;;
82417;SDS011;75985;53.734;10.260;2024-02-16T07:09:46;3.20;;;2.90;;
82417;SDS011;75985;53.734;10.260;2024-02-16T07:12:51;3.70;;;3.40;;
82417;SDS011;75985;53.734;10.260;2024-02-16T07:15:55;4.53;;;3.70;;
82417;SDS011;75985;53.734;10.260;2024-02-16T07:19:00;4.22;;;3.42;;
82417;SDS011;75985;53.734;10.260;2024-02-16T07:22:04;4.55;;;2.60;;
82417;SDS011;75985;53.734;10.260;2024-02-16T07:25:12;2.98;;;2.62;;
82417;SDS011;75985;53.734;10.260;2024-02-16T07:28:17;3.00;;;2.58;;
82417;SDS011;75985;53.734;10.260;2024-02-16T07:31:22;3.15;;;2.67;;
82417;SDS011;75985;53.734;10.260;2024-02-16T07:34:26;2.50;;;2.27;;
82417;SDS011;75985;53.734;10.260;2024-02-16T07:37:31;2.75;;;2.55;;
82417;SDS011;75985;53.734;10.260;2024-02-16T07:40:36;3.30;;;2.90;;
82417;SDS011;75985;53.734;10.260;2024-02-16T07:43:40;3.75;;;2.72;;
82417;SDS011;75985;53.734;10.260;2024-02-16T07:46:45;3.00;;;2.30;;
82417;SDS011;75985;53.734;10.260;2024-02-16T07:49:50;3.70;;;2.80;;
82417;SDS011;75985;53.734;10.260;2024-02-16T07:52:54;2.90;;;2.52;;
82417;SDS011;75985;53.734;10.260;2024-02-16T07:55:59;3.25;;;2.22;;
82417;SDS011;75985;53.734;10.260;2024-02-16T07:59:03;3.08;;;2.08;;
82417;SDS011;75985;53.734;10.260;2024-02-16T08:02:08;2.83;;;2.02;;
82417;SDS011;75985;53.734;10.260;2024-02-16T08:05:14;2.92;;;2.20;;
82417;SDS011;75985;53.734;10.260;2024-02-16T08:08:21;2.87;;;2.15;;
82417;SDS011;75985;53.734;10.260;2024-02-16T08:11:26;2.60;;;2.12;;
82417;SDS011;75985;53.734;10.260;2024-02-16T08:14:30;4.08;;;3.10;;
82417;SDS011;75985;53.734;10.260;2024-02-16T08:17:35;3.42;;;2.65;;
82417;SDS011;75985;53.734;10.260;2024-02-16T08:20:41;3.50;;;2.85;;
82417;SDS011;75985;53.734;10.260;2024-02-16T08:23:47;3.52;;;3.22;;
82417;SDS011;75985;53.734;10.260;2024-02-16T08:26:53;3.40;;;2.80;;
82417;SDS011;75985;53.734;10.260;2024-02-16T08:29:59;2.98;;;2.65;;
82417;SDS011;75985;53.734;10.260;2024-02-16T08:33:05;2.98;;;2.77;;
82417;SDS011;75985;53.734;10.260;2024-02-16T08:36:09;3.08;;;2.72;;
82417;SDS011;75985;53.734;10.260;2024-02-16T08:39:14;2.50;;;2.30;;
82417;SDS011;75985;53.734;10.260;2024-02-16T08:42:19;3.10;;;2.80;;
82417;SDS011;75985;53.734;10.260;2024-02-16T08:45:25;3.00;;;2.50;;
82417;SDS011;75985;53.734;10.260;2024-02-16T08:48:30;2.50;;;2.30;;
82417;SDS011;75985;53.734;10.260;2024-02-16T08:51:34;2.08;;;1.87;;
82417;SDS011;75985;53.734;10.260;2024-02-16T08:54:39;7.50;;;3.72;;
82417;SDS011;75985;53.734;10.260;2024-02-16T08:57:43;2.20;;;2.00;;
82417;SDS011;75985;53.734;10.260;2024-02-16T09:00:48;1.98;;;1.87;;
82417;SDS011;75985;53.734;10.260;2024-02-16T09:03:53;2.22;;;2.02;;
82417;SDS011;75985;53.734;10.260;2024-02-16T09:06:58;3.85;;;2.67;;
82417;SDS011;75985;53.734;10.260;2024-02-16T09:10:05;2.85;;;2.40;;
82417;SDS011;75985;53.734;10.260;2024-02-16T09:13:10;3.35;;;2.90;;
82417;SDS011;75985;53.734;10.260;2024-02-16T09:16:15;3.47;;;3.05;;
82417;SDS011;75985;53.734;10.260;2024-02-16T09:19:20;2.92;;;2.52;;
82417;SDS011;75985;53.734;10.260;2024-02-16T09:22:24;3.00;;;2.60;;
82417;SDS011;75985;53.734;10.260;2024-02-16T09:25:29;3.25;;;2.80;;
82417;SDS011;75985;53.734;10.260;2024-02-16T09:28:38;3.45;;;2.37;;
82417;SDS011;75985;53.734;10.260;2024-02-16T09:31:48;2.42;;;2.22;;
82417;SDS011;75985;53.734;10.260;2024-02-16T09:34:57;2.35;;;2.15;;
82417;SDS011;75985;53.734;10.260;2024-02-16T09:38:01;2.17;;;1.98;;
82417;SDS011;75985;53.734;10.260;2024-02-16T09:41:06;2.40;;;2.30;;
82417;SDS011;75985;53.734;10.260;2024-02-16T09:44:10;5.37;;;2.42;;
82417;SDS011;75985;53.734;10.260;2024-02-16T09:47:15;2.40;;;2.17;;
82417;SDS011;75985;53.734;10.260;2024-02-16T09:50:22;8.25;;;2.77;;
82417;SDS011;75985;53.734;10.260;2024-02-16T09:53:27;2.90;;;2.25;;
82417;SDS011;75985;53.734;10.260;2024-02-16T09:56:32;2.62;;;2.42;;
82417;SDS011;75985;53.734;10.260;2024-02-16T09:59:37;2.60;;;2.40;;
82417;SDS011;75985;53.734;10.260;2024-02-16T10:02:45;2.80;;;2.10;;
82417;SDS011;75985;53.734;10.260;2024-02-16T10:05:51;3.58;;;2.85;;
82417;SDS011;75985;53.734;10.260;2024-02-16T10:08:58;3.05;;;1.85;;
82417;SDS011;75985;53.734;10.260;2024-02-16T10:12:05;3.10;;;2.30;;
82417;SDS011;75985;53.734;10.260;2024-02-16T10:15:10;1.90;;;1.80;;
82417;SDS011;75985;53.734;10.260;2024-02-16T10:18:15;2.52;;;2.33;;
82417;SDS011;75985;53.734;10.260;2024-02-16T10:21:25;2.17;;;1.80;;
82417;SDS011;75985;53.734;10.260;2024-02-16T10:24:31;3.20;;;2.35;;
82417;SDS011;75985;53.734;10.260;2024-02-16T10:27:35;3.35;;;2.33;;
82417;SDS011;75985;53.734;10.260;2024-02-16T10:30:40;3.30;;;2.30;;
82417;SDS011;75985;53.734;10.260;2024-02-16T10:33:46;3.85;;;2.47;;
82417;SDS011;75985;53.734;10.260;2024-02-16T10:36:52;3.42;;;2.27;;
82417;SDS011;75985;53.734;10.260;2024-02-16T10:39:57;4.05;;;2.70;;
82417;SDS011;75985;53.734;10.260;2024-02-16T10:43:06;2.65;;;2.10;;
82417;SDS011;75985;53.734;10.260;2024-02-16T10:46:12;2.42;;;2.22;;
82417;SDS011;75985;53.734;10.260;2024-02-16T10:49:17;3.08;;;2.00;;
82417;SDS011;75985;53.734;10.260;2024-02-16T10:52:22;2.20;;;1.90;;
82417;SDS011;75985;53.734;10.260;2024-02-16T10:55:29;2.33;;;1.80;;
82417;SDS011;75985;53.734;10.260;2024-02-16T10:58:34;4.10;;;2.20;;
82417;SDS011;75985;53.734;10.260;2024-02-16T11:01:41;3.80;;;2.27;;
82417;SDS011;75985;53.734;10.260;2024-02-16T11:04:47;2.10;;;1.67;;
82417;SDS011;75985;53.734;10.260;2024-02-16T11:07:59;3.17;;;2.02;;
82417;SDS011;75985;53.734;10.260;2024-02-16T11:11:08;2.75;;;1.95;;
82417;SDS011;75985;53.734;10.260;2024-02-16T11:14:15;2.27;;;1.98;;
82417;SDS011;75985;53.734;10.260;2024-02-16T11:17:20;3.83;;;2.27;;
82417;SDS011;75985;53.734;10.260;2024-02-16T11:20:27;2.40;;;2.08;;
82417;SDS011;75985;53.734;10.260;2024-02-16T11:23:32;2.12;;;1.50;;
82417;SDS011;75985;53.734;10.260;2024-02-16T11:26:42;2.58;;;1.80;;
82417;SDS011;75985;53.734;10.260;2024-02-16T11:29:48;1.90;;;1.70;;
82417;SDS011;75985;53.734;10.260;2024-02-16T11:32:53;2.30;;;2.00;;
82417;SDS011;75985;53.734;10.260;2024-02-16T11:36:03;2.83;;;1.95;;
82417;SDS011;75985;53.734;10.260;2024-02-16T11:39:11;2.10;;;1.82;;
82417;SDS011;75985;53.734;10.260;2024-02-16T11:42:20;2.00;;;1.77;;
82417;SDS011;75985;53.734;10.260;2024-02-16T11:45:25;2.55;;;1.98;;
82417;SDS011;75985;53.734;10.260;2024-02-16T11:48:29;3.10;;;1.90;;
82417;SDS011;75985;53.734;10.260;2024-02-16T11:51:34;3.72;;;2.20;;
82417;SDS011;75985;53.734;10.260;2024-02-16T11:54:43;6.62;;;2.72;;
82417;SDS011;75985;53.734;10.260;2024-02-16T11:57:46;3.67;;;1.87;;
82417;SDS011;75985;53.734;10.260;2024-02-16T12:00:53;4.03;;;2.10;;
82417;SDS011;75985;53.734;10.260;2024-02-16T12:03:59;3.22;;;2.00;;
82417;SDS011;75985;53.734;10.260;2024-02-16T12:07:04;3.20;;;2.10;;
82417;SDS011;75985;53.734;10.260;2024-02-16T12:10:08;3.98;;;2.33;;
82417;SDS011;75985;53.734;10.260;2024-02-16T12:13:15;5.25;;;2.30;;
82417;SDS011;75985;53.734;10.260;2024-02-16T12:16:22;3.80;;;2.25;;
82417;SDS011;75985;53.734;10.260;2024-02-16T12:19:28;4.15;;;2.70;;
82417;SDS011;75985;53.734;10.260;2024-02-16T12:22:32;3.33;;;2.37;;
82417;SDS011;75985;53.734;10.260;2024-02-16T12:25:38;3.25;;;2.25;;
82417;SDS011;75985;53.734;10.260;2024-02-16T12:28:44;4.42;;;2.17;;
82417;SDS011;75985;53.734;10.260;2024-02-16T12:31:49;5.80;;;2.67;;
82417;SDS011;75985;53.734;10.260;2024-02-16T12:34:55;4.37;;;2.60;;
82417;SDS011;75985;53.734;10.260;2024-02-16T12:38:00;3.58;;;2.55;;
82417;SDS011;75985;53.734;10.260;2024-02-16T12:41:05;4.70;;;2.42;;
82417;SDS011;75985;53.734;10.260;2024-02-16T12:44:10;3.50;;;2.80;;
82417;SDS011;75985;53.734;10.260;2024-02-16T12:47:15;8.95;;;2.77;;
82417;SDS011;75985;53.734;10.260;2024-02-16T12:50:19;5.00;;;3.02;;
82417;SDS011;75985;53.734;10.260;2024-02-16T12:53:24;3.47;;;2.70;;
82417;SDS011;75985;53.734;10.260;2024-02-16T12:56:28;4.80;;;3.40;;
82417;SDS011;75985;53.734;10.260;2024-02-16T12:59:33;3.30;;;2.70;;
82417;SDS011;75985;53.734;10.260;2024-02-16T13:02:37;5.60;;;3.15;;
82417;SDS011;75985;53.734;10.260;2024-02-16T13:05:42;4.95;;;3.08;;
82417;SDS011;75985;53.734;10.260;2024-02-16T13:08:46;4.10;;;2.80;;
82417;SDS011;75985;53.734;10.260;2024-02-16T13:11:51;6.37;;;2.77;;
82417;SDS011;75985;53.734;10.260;2024-02-16T13:14:57;4.90;;;2.92;;
82417;SDS011;75985;53.734;10.260;2024-02-16T13:18:02;3.00;;;2.70;;
82417;SDS011;75985;53.734;10.260;2024-02-16T13:21:06;4.37;;;3.42;;
82417;SDS011;75985;53.734;10.260;2024-02-16T13:24:11;4.67;;;3.02;;
82417;SDS011;75985;53.734;10.260;2024-02-16T13:27:15;7.92;;;3.80;;
82417;SDS011;75985;53.734;10.260;2024-02-16T13:30:20;5.03;;;3.37;;
82417;SDS011;75985;53.734;10.260;2024-02-16T13:33:24;6.75;;;3.72;;
82417;SDS011;75985;53.734;10.260;2024-02-16T13:36:29;5.90;;;3.70;;
82417;SDS011;75985;53.734;10.260;2024-02-16T13:39:34;4.87;;;3.30;;
82417;SDS011;75985;53.734;10.260;2024-02-16T13:42:38;7.15;;;3.85;;
82417;SDS011;75985;53.734;10.260;2024-02-16T13:45:50;3.58;;;2.90;;
82417;SDS011;75985;53.734;10.260;2024-02-16T13:48:56;5.60;;;3.50;;
82417;SDS011;75985;53.734;10.260;2024-02-16T13:52:01;6.15;;;3.35;;
82417;SDS011;75985;53.734;10.260;2024-02-16T13:55:06;3.83;;;3.42;;
82417;SDS011;75985;53.734;10.260;2024-02-16T13:58:11;4.25;;;3.27;;
82417;SDS011;75985;53.734;10.260;2024-02-16T14:01:16;5.47;;;3.50;;
82417;SDS011;75985;53.734;10.260;2024-02-16T14:04:20;4.95;;;3.60;;
82417;SDS011;75985;53.734;10.260;2024-02-16T14:07:27;5.20;;;3.60;;
82417;SDS011;75985;53.734;10.260;2024-02-16T14:10:33;5.58;;;3.45;;
82417;SDS011;75985;53.734;10.260;2024-02-16T14:13:37;4.90;;;3.80;;
82417;SDS011;75985;53.734;10.260;2024-02-16T14:16:42;7.08;;;3.47;;
82417;SDS011;75985;53.734;10.260;2024-02-16T14:19:47;6.95;;;4.45;;
82417;SDS011;75985;53.734;10.260;2024-02-16T14:22:52;6.30;;;3.60;;
82417;SDS011;75985;53.734;10.260;2024-02-16T14:25:56;8.03;;;4.08;;
82417;SDS011;75985;53.734;10.260;2024-02-16T14:29:01;5.15;;;3.72;;
82417;SDS011;75985;53.734;10.260;2024-02-16T14:32:05;7.08;;;4.37;;
82417;SDS011;75985;53.734;10.260;2024-02-16T14:35:11;6.35;;;3.90;;
82417;SDS011;75985;53.734;10.260;2024-02-16T14:38:15;7.70;;;4.75;;
82417;SDS011;75985;53.734;10.260;2024-02-16T14:41:20;6.55;;;4.70;;
82417;SDS011;75985;53.734;10.260;2024-02-16T14:44:25;6.95;;;4.70;;
82417;SDS011;75985;53.734;10.260;2024-02-16T14:47:30;8.20;;;5.30;;
82417;SDS011;75985;53.734;10.260;2024-02-16T14:50:34;7.65;;;5.37;;
82417;SDS011;75985;53.734;10.260;2024-02-16T14:53:39;7.75;;;5.42;;
82417;SDS011;75985;53.734;10.260;2024-02-16T14:56:44;9.78;;;5.47;;
82417;SDS011;75985;53.734;10.260;2024-02-16T14:59:48;7.03;;;5.67;;
82417;SDS011;75985;53.734;10.260;2024-02-16T15:02:54;8.25;;;5.78;;
82417;SDS011;75985;53.734;10.260;2024-02-16T15:05:59;8.03;;;5.95;;
82417;SDS011;75985;53.734;10.260;2024-02-16T15:09:03;11.20;;;6.72;;
82417;SDS011;75985;53.734;10.260;2024-02-16T15:12:08;10.65;;;6.15;;
82417;SDS011;75985;53.734;10.260;2024-02-16T15:15:13;9.05;;;6.33;;
82417;SDS011;75985;53.734;10.260;2024-02-16T15:18:17;10.40;;;7.70;;
82417;SDS011;75985;53.734;10.260;2024-02-16T15:21:22;9.80;;;7.00;;
82417;SDS011;75985;53.734;10.260;2024-02-16T15:24:27;13.03;;;6.53;;
82417;SDS011;75985;53.734;10.260;2024-02-16T15:27:31;10.55;;;7.85;;
82417;SDS011;75985;53.734;10.260;2024-02-16T15:30:38;8.58;;;7.72;;
82417;SDS011;75985;53.734;10.260;2024-02-16T15:33:43;15.30;;;7.60;;
82417;SDS011;75985;53.734;10.260;2024-02-16T15:36:47;10.75;;;7.97;;
82417;SDS011;75985;53.734;10.260;2024-02-16T15:39:53;11.70;;;7.92;;
82417;SDS011;75985;53.734;10.260;2024-02-16T15:42:59;10.38;;;9.20;;
82417;SDS011;75985;53.734;10.260;2024-02-16T15:46:05;10.72;;;8.75;;
82417;SDS011;75985;53.734;10.260;2024-02-16T15:49:09;9.83;;;8.15;;
82417;SDS011;75985;53.734;10.260;2024-02-16T15:52:14;10.30;;;8.60;;
82417;SDS011;75985;53.734;10.260;2024-02-16T15:55:19;11.95;;;7.95;;
82417;SDS011;75985;53.734;10.260;2024-02-16T15:58:25;9.78;;;8.68;;
82417;SDS011;75985;53.734;10.260;2024-02-16T16:01:29;11.50;;;9.13;;
82417;SDS011;75985;53.734;10.260;2024-02-16T16:04:35;12.37;;;9.08;;
82417;SDS011;75985;53.734;10.260;2024-02-16T16:07:40;9.80;;;8.73;;
82417;SDS011;75985;53.734;10.260;2024-02-16T16:10:44;11.60;;;9.05;;
82417;SDS011;75985;53.734;10.260;2024-02-16T16:13:50;11.45;;;9.80;;
82417;SDS011;75985;53.734;10.260;2024-02-16T16:16:55;8.43;;;7.37;;
82417;SDS011;75985;53.734;10.260;2024-02-16T16:19:59;7.75;;;6.00;;
82417;SDS011;75985;53.734;10.260;2024-02-16T16:23:06;5.42;;;5.03;;
82417;SDS011;75985;53.734;10.260;2024-02-16T16:26:11;7.85;;;5.15;;
82417;SDS011;75985;53.734;10.260;2024-02-16T16:29:15;5.53;;;4.95;;
82417;SDS011;75985;53.734;10.260;2024-02-16T16:32:20;5.05;;;4.55;;
82417;SDS011;75985;53.734;10.260;2024-02-16T16:35:25;4.67;;;4.28;;
82417;SDS011;75985;53.734;10.260;2024-02-16T16:38:29;6.35;;;4.58;;
82417;SDS011;75985;53.734;10.260;2024-02-16T16:41:34;7.53;;;5.15;;
82417;SDS011;75985;53.734;10.260;2024-02-16T16:44:39;5.25;;;4.75;;
82417;SDS011;75985;53.734;10.260;2024-02-16T16:47:43;5.28;;;4.33;;
82417;SDS011;75985;53.734;10.260;2024-02-16T16:50:48;4.92;;;4.53;;
82417;SDS011;75985;53.734;10.260;2024-02-16T16:53:52;5.78;;;5.28;;
82417;SDS011;75985;53.734;10.260;2024-02-16T16:56:57;4.80;;;4.40;;
82417;SDS011;75985;53.734;10.260;2024-02-16T17:00:02;4.58;;;4.17;;
82417;SDS011;75985;53.734;10.260;2024-02-16T17:03:07;3.92;;;3.62;;
82417;SDS011;75985;53.734;10.260;2024-02-16T17:06:12;3.80;;;3.50;;
82417;SDS011;75985;53.734;10.260;2024-02-16T17:09:16;3.58;;;3.27;;
82417;SDS011;75985;53.734;10.260;2024-02-16T17:12:22;4.08;;;3.77;;
82417;SDS011;75985;53.734;10.260;2024-02-16T17:15:27;4.28;;;3.67;;
82417;SDS011;75985;53.734;10.260;2024-02-16T17:18:35;4.47;;;4.08;;
82417;SDS011;75985;53.734;10.260;2024-02-16T17:21:39;4.05;;;3.72;;
82417;SDS011;75985;53.734;10.260;2024-02-16T17:24:44;2.83;;;2.62;;
82417;SDS011;75985;53.734;10.260;2024-02-16T17:27:49;2.02;;;1.92;;
82417;SDS011;75985;53.734;10.260;2024-02-16T17:30:54;2.30;;;2.20;;
82417;SDS011;75985;53.734;10.260;2024-02-16T17:33:58;1.85;;;1.75;;
82417;SDS011;75985;53.734;10.260;2024-02-16T17:37:04;1.92;;;1.82;;
82417;SDS011;75985;53.734;10.260;2024-02-16T17:40:10;2.17;;;2.02;;
82417;SDS011;75985;53.734;10.260;2024-02-16T17:43:15;1.80;;;1.70;;
82417;SDS011;75985;53.734;10.260;2024-02-16T17:46:20;2.00;;;1.85;;
82417;SDS011;75985;53.734;10.260;2024-02-16T17:49:24;2.12;;;2.02;;
82417;SDS011;75985;53.734;10.260;2024-02-16T17:52:29;2.42;;;2.22;;
82417;SDS011;75985;53.734;10.260;2024-02-16T17:55:34;2.37;;;2.22;;
82417;SDS011;75985;53.734;10.260;2024-02-16T17:58:40;3.45;;;3.25;;
82417;SDS011;75985;53.734;10.260;2024-02-16T18:01:44;4.15;;;3.85;;
82417;SDS011;75985;53.734;10.260;2024-02-16T18:04:49;5.10;;;4.70;;
82417;SDS011;75985;53.734;10.260;2024-02-16T18:07:53;5.78;;;5.28;;
82417;SDS011;75985;53.734;10.260;2024-02-16T18:10:58;6.53;;;5.90;;
82417;SDS011;75985;53.734;10.260;2024-02-16T18:14:02;9.05;;;8.10;;
82417;SDS011;75985;53.734;10.260;2024-02-16T18:17:07;8.63;;;7.75;;